Nearby METAR Reports

 

KSFB - Sanford/Orlando, Florida, USA
Distance from station: Ws 8mi, 12km
Aktualizacja: Sat 06/23/18 3:53am EDT
Bezchmurnie
Bezchmurnie
 Wiatr z PdPdZd
Wiatr: PdPdZd 5 mph , 7 km/h
Temperatura: 77°F , 25°C
Punkt Rosy: 75°F , 24°C
Wilgotność: 94%
Ciśnienie: 29.96 inHg , 1014.6 hPa
Clouds: Bezchmurnie
Visibility: 10 miles , 16 km
2018/06/23 07:53 KSFB 230753Z AUTO 21004KT 10SM CLR 25/24 A2996 RMK AO2 SLP144 T02500239
KORL - Orlando, Florida, USA
Distance from station: Pd 15mi, 24km
Aktualizacja: Sat 06/23/18 3:53am EDT
Bezchmurnie
Bezchmurnie
 Wiatr z PdPdZd
Wiatr: PdPdZd 6 mph , 9 km/h
Temperatura: 79°F , 26°C
Punkt Rosy: 77°F , 25°C
Wilgotność: 94%
Ciśnienie: 29.97 inHg , 1014.9 hPa
Clouds: Bezchmurnie
Visibility: 8 miles , 13 km
2018/06/23 07:53 KORL 230753Z AUTO 20005KT 8SM CLR 26/25 A2997 RMK AO2 SLP149 T02560250 $
 
KDED - Deland, Florida, USA
Distance from station: Pn 21mi, 34km
Aktualizacja: Sat 06/23/18 4:15am EDT
Bezchmurnie
Bezchmurnie
 Wiatr z PdZd
Wiatr: PdZd 5 mph , 7 km/h
Temperatura: 75°F , 24°C
Punkt Rosy: 75°F , 24°C
Wilgotność: 100%
Ciśnienie: 29.96 inHg , 1014.6 hPa
Clouds: Bezchmurnie
Visibility: 10 miles , 16 km
2018/06/23 08:15 KDED 230815Z AUTO 22004KT 10SM CLR 24/24 A2996 RMK AO2
KMCO - Orlando, Florida, USA
Distance from station: Pd 24mi, 39km
Aktualizacja: Sat 06/23/18 3:53am EDT
Przeważnie pochmurno
Przeważnie pochmurno
 Wiatr z PdPdZd
Wiatr: PdPdZd 3 mph , 6 km/h
Temperatura: 75°F , 24°C
Punkt Rosy: 75°F , 24°C
Wilgotność: 100%
Ciśnienie: 29.97 inHg , 1014.9 hPa
Clouds: Przeważnie pochmurno
Visibility: 8 miles , 13 km
Cloud details: Przeważnie pochmurno 25000 ft
2018/06/23 07:53 KMCO 230753Z 21003KT 8SM BKN250 24/24 A2997 RMK AO2 SLP148 T02390239
 
KLEE - Leesburg, Florida, USA
Distance from station: Zd 29mi, 47km
Aktualizacja: Sat 06/23/18 3:53am EDT
Bezchmurnie
Bezchmurnie
 Wiatr z Pd
Wiatr: Pd 5 mph , 7 km/h
Temperatura: 79°F , 26°C
Punkt Rosy: 79°F , 26°C
Wilgotność: 100%
Ciśnienie: 29.98 inHg , 1015.2 hPa
Clouds: Bezchmurnie
Visibility: 8 miles , 13 km
2018/06/23 07:53 KLEE 230753Z AUTO 19004KT 8SM CLR 26/26 A2998 RMK AO2 SLP150 T02610256
KEVB - New Smyrna Beach, Florida, USA
Distance from station: PnWs 31mi, 49km
Aktualizacja: Fri 06/22/18 9:47pm EDT
NOT Current
Few Clouds
Few Clouds
 Wiatr z calm
Wiatr: Cisza
Temperatura: 75°F , 24°C
Punkt Rosy: 73°F , 23°C
Wilgotność: 94%
Ciśnienie: 29.95 inHg , 1014.2 hPa
Clouds: Few Clouds
Visibility: 10 miles , 16 km
Cloud details: Few Clouds 6000 ft
2018/06/23 01:47 KEVB 230147Z 00000KT 10SM FEW060 24/23 A2995 RMK LAST
 
KDAB - Daytona Beach, Florida, USA
Distance from station: PnPnZd 33mi, 53km
Aktualizacja: Sat 06/23/18 3:53am EDT
Bezchmurnie
Bezchmurnie
 Wiatr z PdPdZd
Wiatr: PdPdZd 5 mph , 7 km/h
Temperatura: 75°F , 24°C
Punkt Rosy: 75°F , 24°C
Wilgotność: 100%
Ciśnienie: 29.96 inHg , 1014.6 hPa
Clouds: Bezchmurnie
Visibility: 10 miles , 16 km
2018/06/23 07:53 KDAB 230753Z 21004KT 10SM CLR 24/24 A2996 RMK AO2 SLP143 T02390239
KISM - Kissimmee/Orland, Florida, USA
Distance from station: Pd 34mi, 55km
Aktualizacja: Sat 06/23/18 3:56am EDT
Bezchmurnie
Bezchmurnie
 Wiatr z Pd
Wiatr: Pd 3 mph , 6 km/h
Temperatura: 77°F , 25°C
Punkt Rosy: 75°F , 24°C
Wilgotność: 94%
Ciśnienie: 29.98 inHg , 1015.2 hPa
Clouds: Bezchmurnie
Visibility: 10 miles , 16 km
2018/06/23 07:56 KISM 230756Z AUTO 19003KT 10SM CLR 25/24 A2998 RMK AO2 SLP154 T02500239
 
KTIX - Titusville, Florida, USA
Distance from station: WsPdWs 38mi, 61km
Aktualizacja: Fri 06/22/18 8:45pm EDT
NOT Current
Przeważnie pochmurno
Przeważnie pochmurno
 Wiatr z calm
Wiatr: Cisza
Ciśnienie: 29.96 inHg , 1014.6 hPa
Clouds: Przeważnie pochmurno
Visibility: 7 miles , 11 km
Cloud details: Częściowe zachmurzenie 9000 ft
Przeważnie pochmurno 11000 ft
2018/06/23 00:45 KTIX 230045Z 00000KT 7SM SCT090 BKN110 A2996 RMK LAST
KOMN - Ormond Beach Vor, Florida, USA
Distance from station: PnPnZd 39mi, 63km
Aktualizacja: Fri 06/22/18 6:50pm EDT
NOT Current
Przeważnie pochmurno
Przeważnie pochmurno
 Wiatr z PdWs
Wiatr: PdWs 7 mph , 11 km/h
Temperatura: 81°F , 27°C
Heat Index: 87°F , 31°C
Punkt Rosy: 75°F , 24°C
Wilgotność: 84%
Ciśnienie: 29.91 inHg , 1012.9 hPa
Clouds: Przeważnie pochmurno
Visibility: 7 miles , 11 km
Cloud details: Częściowe zachmurzenie 4700 ft
Przeważnie pochmurno 8000 ft
2018/06/22 22:50 KOMN 222250Z 13006KT 7SM SCT047 BKN080 27/24 A2991 RMK LAST
 
KTTS - Nasa Shuttle Fcl, Florida, USA
Distance from station: WsPdWs 39mi, 63km
Aktualizacja: Sat 06/23/18 3:56am EDT
Few Clouds
Few Clouds
 Wiatr z ZdPdZa
Wiatr: ZdPdZa 6 mph , 9 km/h
Temperatura: 79°F , 26°C
Punkt Rosy: 79°F , 26°C
Wilgotność: 100%
Ciśnienie: 29.95 inHg , 1014.2 hPa
Clouds: Few Clouds
Visibility: 10 miles , 16 km
Cloud details: Few Clouds 18000 ft
2018/06/23 07:56 KTTS 230756Z AUTO 24005KT 10SM FEW180 26/26 A2995 RMK AO2 SLP146 T02570257 $
KVVG - The Villages, Florida, USA
Distance from station: ZdPnZd 40mi, 64km
Aktualizacja: Wed 02/14/18 2:10pm EST
NOT Current

 Wiatr z calm
Wiatr: Cisza
Temperatura: 73°F , 23°C
Punkt Rosy: 66°F , 19°C
Wilgotność: 78%
Ciśnienie: 30.29 inHg , 1025.7 hPa
Visibility: 10 miles , 16 km
2018/02/14 19:10 KVVG 141910Z AUTO 00000KT 10SM 23/19 A3029 RMK A01
 
KXMR - Cape Canaveral, Florida, USA
Distance from station: WsPdWs 51mi, 83km
Aktualizacja: Sat 06/23/18 3:56am EDT
Przeważnie pochmurno
Przeważnie pochmurno
 Wiatr z PdZd
Wiatr: PdZd 6 mph , 9 km/h
Temperatura: 79°F , 26°C
Punkt Rosy: 75°F , 24°C
Wilgotność: 89%
Ciśnienie: 29.95 inHg , 1014.2 hPa
Clouds: Przeważnie pochmurno
Visibility: 10 miles , 16 km
Cloud details: Częściowe zachmurzenie 16000 ft
Przeważnie pochmurno 20000 ft
2018/06/23 07:56 KXMR 230756Z AUTO 22005KT 10SM SCT160 BKN200 26/24 A2995 RMK AO2 SLP145 T02640236 $
KGIF - Winter Haven, Florida, USA
Distance from station: PdPdZd 55mi, 88km
Aktualizacja: Sat 06/23/18 3:53am EDT
Bezchmurnie
Bezchmurnie
 Wiatr z PdPdWs
Wiatr: PdPdWs 3 mph , 6 km/h
Temperatura: 79°F , 26°C
Punkt Rosy: 77°F , 25°C
Wilgotność: 94%
Ciśnienie: 29.99 inHg , 1015.6 hPa
Clouds: Bezchmurnie
Visibility: 10 miles , 16 km
2018/06/23 07:53 KGIF 230753Z AUTO 16003KT 10SM CLR 26/25 A2999 RMK AO2 SLP152 T02610250
 
KCOF - Patrick Afb/Coco, Florida, USA
Distance from station: PdWs 58mi, 94km
Aktualizacja: Sat 06/23/18 3:56am EDT
Przeważnie pochmurno
Przeważnie pochmurno
 Wiatr z PdZd
Wiatr: PdZd 9 mph , 15 km/h
Temperatura: 79°F , 26°C
Punkt Rosy: 79°F , 26°C
Wilgotność: 100%
Ciśnienie: 29.96 inHg , 1014.6 hPa
Clouds: Przeważnie pochmurno
Visibility: 10 miles , 16 km
Cloud details: Przeważnie pochmurno 20000 ft
2018/06/23 07:56 KCOF 230756Z AUTO 23008KT 10SM BKN200 26/26 A2996 RMK AO2 SLP150 T02600258 $
KINF - Inverness, Florida, USA
Distance from station: Zd 59mi, 95km
Aktualizacja: Sat 06/23/18 4:15am EDT
Mist, Bezchmurnie
Mist, Bezchmurnie
 Wiatr z Pd
Wiatr: Pd 3 mph , 6 km/h
Temperatura: 73°F , 23°C
Punkt Rosy: 73°F , 23°C
Wilgotność: 100%
Ciśnienie: 29.97 inHg , 1014.9 hPa
Podsumowanie: Mist
Clouds: Bezchmurnie
Visibility: 5 miles , 8 km
2018/06/23 08:15 KINF 230815Z AUTO 19003KT 5SM BR CLR 23/23 A2997 RMK AO2
 
KOCF - Ocala Muni, Florida, USA
Distance from station: ZdPnZd 60mi, 96km
Aktualizacja: Sat 06/23/18 3:51am EDT
Bezchmurnie
Bezchmurnie
 Wiatr z PdPdWs
Wiatr: PdPdWs 3 mph , 6 km/h
Temperatura: 75°F , 24°C
Punkt Rosy: 75°F , 24°C
Wilgotność: 100%
Ciśnienie: 29.96 inHg , 1014.6 hPa
Clouds: Bezchmurnie
Visibility: 9 miles , 14 km
2018/06/23 07:51 KOCF 230751Z AUTO 16003KT 9SM CLR 24/24 A2996 RMK AO2 SLP146 T02440239 $
KZPH - Zephyrhills, Florida, USA
Distance from station: PdZd 61mi, 99km
Aktualizacja: Sat 06/23/18 4:35am EDT
Mist, Bezchmurnie
Mist, Bezchmurnie
 Wiatr z calm
Wiatr: Cisza
Temperatura: 75°F , 24°C
Punkt Rosy: 75°F , 24°C
Wilgotność: 100%
Ciśnienie: 29.99 inHg , 1015.6 hPa
Podsumowanie: Mist
Clouds: Bezchmurnie
Visibility: 5 miles , 8 km
2018/06/23 08:35 KZPH 230835Z AUTO 00000KT 5SM BR CLR 24/24 A2999 RMK AO2 T02430240
 
KMLB - Melbourne, Florida, USA
Distance from station: PdWs 62mi, 100km
Aktualizacja: Sat 06/23/18 3:53am EDT
Bezchmurnie
Bezchmurnie
 Wiatr z PdZd
Wiatr: PdZd 6 mph , 9 km/h
Temperatura: 79°F , 26°C
Punkt Rosy: 73°F , 23°C
Wilgotność: 84%
Ciśnienie: 29.96 inHg , 1014.6 hPa
Clouds: Bezchmurnie
Visibility: 10 miles , 16 km
2018/06/23 07:53 KMLB 230753Z AUTO 23005KT 10SM CLR 26/23 A2996 RMK AO2 SLP146 T02610233
KBOW - Bartow Municipal, Florida, USA
Distance from station: PdPdZd 63mi, 102km
Aktualizacja: Sat 06/23/18 4:15am EDT
Bezchmurnie
Bezchmurnie
 Wiatr z calm
Wiatr: Cisza
Temperatura: 75°F , 24°C
Ciśnienie: 29.99 inHg , 1015.6 hPa
Clouds: Bezchmurnie
Visibility: 9 miles , 14 km
2018/06/23 08:15 KBOW 230815Z AUTO 00000KT 9SM CLR 24/ A2999 RMK AO2